createdAt,value
2023-02-07T00:00:09.125Z,102288.47
2023-02-07T00:00:45.826Z,102283.84
2023-02-07T00:01:21.793Z,102276.50
2023-02-07T00:01:57.912Z,102282.41
2023-02-07T00:02:33.777Z,102278.63
2023-02-07T00:03:10.145Z,102278.16
2023-02-07T00:03:46.177Z,102285.50
2023-02-07T00:04:22.942Z,102283.63
2023-02-07T00:04:59.666Z,102299.97
2023-02-07T00:05:36.218Z,102287.41
2023-02-07T00:06:12.368Z,102289.53
2023-02-07T00:06:47.988Z,102290.59
2023-02-07T00:07:24.494Z,102294.75
2023-02-07T00:08:00.304Z,102283.00
2023-02-07T00:08:37.612Z,102282.41
2023-02-07T00:09:13.783Z,102286.56
2023-02-07T00:09:50.333Z,102293.31
2023-02-07T00:10:26.358Z,102284.06
2023-02-07T00:11:03.303Z,102285.97
2023-02-07T00:11:39.555Z,102296.63
2023-02-07T00:12:15.367Z,102282.78
2023-02-07T00:12:51.712Z,102284.91
2023-02-07T00:13:27.191Z,102285.72
2023-02-07T00:14:04.041Z,102279.22
2023-02-07T00:14:40.926Z,102283.25
2023-02-07T00:15:16.517Z,102281.94
2023-02-07T00:15:51.983Z,102293.91
2023-02-07T00:16:28.385Z,102284.91
2023-02-07T00:17:04.769Z,102281.56
2023-02-07T00:17:41.039Z,102276.72
2023-02-07T00:18:16.896Z,102279.44
2023-02-07T00:18:52.463Z,102275.88
2023-02-07T00:19:28.916Z,102271.03
2023-02-07T00:20:05.706Z,102266.88
2023-02-07T00:20:41.763Z,102270.44
2023-02-07T00:21:18.477Z,102265.34
2023-02-07T00:21:54.691Z,102269.38
2023-02-07T00:22:31.296Z,102274.81
2023-02-07T00:23:08.147Z,102260.97
2023-02-07T00:23:44.385Z,102267.72
2023-02-07T00:24:19.772Z,102269.38
2023-02-07T00:24:56.328Z,102275.66
2023-02-07T00:25:32.427Z,102261.78
2023-02-07T00:26:08.956Z,102264.75
2023-02-07T00:26:44.364Z,102256.81
2023-02-07T00:27:19.866Z,102260.13
2023-02-07T00:27:56.308Z,102261.19
2023-02-07T00:28:32.771Z,102256.56
2023-02-07T00:29:08.919Z,102259.53
2023-02-07T00:29:45.413Z,102255.97
2023-02-07T00:30:22.049Z,102254.69
2023-02-07T00:30:58.566Z,102250.28
2023-02-07T00:31:35.379Z,102247.56
2023-02-07T00:32:10.949Z,102251.34
2023-02-07T00:32:46.385Z,102263.09
2023-02-07T00:33:22.869Z,102258.47
2023-02-07T00:33:59.417Z,102253.00
2023-02-07T00:34:35.502Z,102255.38
2023-02-07T00:35:12.114Z,102255.38
2023-02-07T00:35:47.980Z,102249.22
2023-02-07T00:36:24.404Z,102253.84
2023-02-07T00:37:00.270Z,102251.94
2023-02-07T00:37:36.752Z,102259.31
2023-02-07T00:38:12.661Z,102250.53
2023-02-07T00:38:49.110Z,102251.34
2023-02-07T00:39:25.317Z,102253.25
2023-02-07T00:40:01.922Z,102249.69
2023-02-07T00:40:37.724Z,102251.13
2023-02-07T00:41:13.759Z,102250.28
2023-02-07T00:41:50.165Z,102255.97
2023-02-07T00:42:26.104Z,102251.34
2023-02-07T00:43:02.738Z,102251.13
2023-02-07T00:43:39.107Z,102250.88
2023-02-07T00:44:15.287Z,102251.34
2023-02-07T00:44:51.812Z,102236.88
2023-02-07T00:45:28.249Z,102233.34
2023-02-07T00:46:03.830Z,102240.44
2023-02-07T00:46:39.951Z,102240.03
2023-02-07T00:47:16.517Z,102236.28
2023-02-07T00:47:52.978Z,102241.50
2023-02-07T00:48:28.998Z,102236.28
2023-02-07T00:49:05.475Z,102241.75
2023-02-07T00:49:41.979Z,102238.78
2023-02-07T00:50:17.679Z,102245.06
2023-02-07T00:50:53.483Z,102244.22
2023-02-07T00:51:29.701Z,102249.09
2023-02-07T00:52:06.094Z,102245.06
2023-02-07T00:52:42.091Z,102251.59
2023-02-07T00:53:18.800Z,102246.97
2023-02-07T00:53:55.430Z,102243.41
2023-02-07T00:54:31.454Z,102246.13
2023-02-07T00:55:07.359Z,102240.69
2023-02-07T00:55:43.392Z,102253.25
2023-02-07T00:56:19.054Z,102246.34
2023-02-07T00:56:55.462Z,102249.69
2023-02-07T00:57:31.724Z,102258.09
2023-02-07T00:58:07.734Z,102257.25
2023-02-07T00:58:44.125Z,102264.97
2023-02-07T00:59:20.619Z,102264.38
2023-02-07T00:59:56.881Z,102255.56
2023-02-07T01:00:33.118Z,102257.47
2023-02-07T01:01:09.845Z,102245.50
2023-02-07T01:01:45.505Z,102249.69
2023-02-07T01:02:21.306Z,102247.41
2023-02-07T01:02:57.736Z,102243.41
2023-02-07T01:03:34.597Z,102245.91
2023-02-07T01:04:10.774Z,102239.22
2023-02-07T01:04:46.913Z,102243.63
2023-02-07T01:05:23.253Z,102253.25
2023-02-07T01:05:59.540Z,102252.41
2023-02-07T01:06:35.602Z,102256.56
2023-02-07T01:07:11.013Z,102258.69
2023-02-07T01:07:47.280Z,102259.75
2023-02-07T01:08:22.693Z,102252.41
2023-02-07T01:08:59.577Z,102249.09
2023-02-07T01:09:35.874Z,102243.41
2023-02-07T01:10:12.070Z,102239.00
2023-02-07T01:10:47.467Z,102238.78
2023-02-07T01:11:23.159Z,102241.50
2023-02-07T01:11:59.843Z,102238.78
2023-02-07T01:12:36.293Z,102239.38
2023-02-07T01:13:12.819Z,102239.63
2023-02-07T01:13:49.131Z,102241.50
2023-02-07T01:14:25.624Z,102249.28
2023-02-07T01:15:04.686Z,102243.63
2023-02-07T01:15:41.197Z,102236.28
2023-02-07T01:16:17.426Z,102240.69
2023-02-07T01:16:53.572Z,102243.41
2023-02-07T01:17:29.809Z,102243.63
2023-02-07T01:18:06.054Z,102236.88
2023-02-07T01:18:42.664Z,102238.78
2023-02-07T01:19:18.509Z,102234.16
2023-02-07T01:19:54.590Z,102235.47
2023-02-07T01:20:31.395Z,102230.19
2023-02-07T01:21:07.256Z,102231.25
2023-02-07T01:21:42.667Z,102229.59
2023-02-07T01:22:18.954Z,102233.75
2023-02-07T01:22:55.604Z,102233.75
2023-02-07T01:23:32.516Z,102225.59
2023-02-07T01:24:09.550Z,102227.28
2023-02-07T01:24:45.726Z,102227.28
2023-02-07T01:25:22.282Z,102232.72
2023-02-07T01:25:58.787Z,102232.25
2023-02-07T01:26:35.007Z,102234.00
2023-02-07T01:27:10.786Z,102237.31
2023-02-07T01:27:47.555Z,102228.31
2023-02-07T01:28:23.851Z,102231.66
2023-02-07T01:29:00.385Z,102225.81
2023-02-07T01:29:36.867Z,102228.09
2023-02-07T01:30:13.526Z,102221.19
2023-02-07T01:30:49.778Z,102225.38
2023-02-07T01:31:26.121Z,102226.66
2023-02-07T01:32:01.736Z,102227.47
2023-02-07T01:32:37.247Z,102221.19
2023-02-07T01:33:13.673Z,102216.56
2023-02-07T01:33:49.775Z,102217.22
2023-02-07T01:34:26.475Z,102213.66
2023-02-07T01:35:03.801Z,102216.13
2023-02-07T01:35:39.811Z,102221.19
2023-02-07T01:36:16.051Z,102213.84
2023-02-07T01:36:52.442Z,102216.97
2023-02-07T01:37:28.151Z,102222.25
2023-02-07T01:38:04.019Z,102212.19
2023-02-07T01:38:39.836Z,102212.19
2023-02-07T01:39:16.652Z,102214.06
2023-02-07T01:39:52.780Z,102213.84
2023-02-07T01:40:29.337Z,102214.47
2023-02-07T01:41:05.476Z,102214.91
2023-02-07T01:41:42.086Z,102214.06
2023-02-07T01:42:17.886Z,102213.00
2023-02-07T01:42:54.668Z,102213.66
2023-02-07T01:43:30.797Z,102207.97
2023-02-07T01:44:07.426Z,102210.06
2023-02-07T01:44:43.880Z,102206.06
2023-02-07T01:45:20.532Z,102211.34
2023-02-07T01:45:57.124Z,102206.13
2023-02-07T01:46:33.181Z,102210.06
2023-02-07T01:47:08.645Z,102206.50
2023-02-07T01:47:45.500Z,102208.38
2023-02-07T01:48:21.579Z,102209.03
2023-02-07T01:48:57.680Z,102208.38
2023-02-07T01:49:33.992Z,102214.47
2023-02-07T01:50:09.897Z,102210.28
2023-02-07T01:50:45.969Z,102213.84
2023-02-07T01:51:22.380Z,102220.53
2023-02-07T01:51:58.272Z,102217.41
2023-02-07T01:52:34.399Z,102208.19
2023-02-07T01:53:11.558Z,102205.22
2023-02-07T01:53:47.718Z,102210.91
2023-02-07T01:54:23.798Z,102206.91
2023-02-07T01:55:00.440Z,102206.50
2023-02-07T01:55:37.573Z,102208.63
2023-02-07T01:56:20.134Z,102209.22
2023-02-07T01:56:57.917Z,102208.63
2023-02-07T01:57:33.718Z,102215.75
2023-02-07T01:58:09.885Z,102214.06
2023-02-07T01:58:46.889Z,102215.75
2023-02-07T01:59:23.112Z,102218.69
2023-02-07T01:59:59.046Z,102221.19
2023-02-07T02:00:35.486Z,102232.09
2023-02-07T02:01:11.996Z,102221.81
2023-02-07T02:01:48.744Z,102226.66
2023-02-07T02:02:24.821Z,102215.97
2023-02-07T02:03:00.721Z,102222.25
2023-02-07T02:03:37.100Z,102217.88
2023-02-07T02:04:13.766Z,102214.06
2023-02-07T02:04:49.824Z,102208.63
2023-02-07T02:05:26.009Z,102213.66
2023-02-07T02:06:03.114Z,102211.28
2023-02-07T02:06:39.303Z,102207.31
2023-02-07T02:07:15.613Z,102207.31
2023-02-07T02:07:51.783Z,102212.19
2023-02-07T02:08:27.603Z,102215.50
2023-02-07T02:09:03.940Z,102214.47
2023-02-07T02:09:39.899Z,102217.41
2023-02-07T02:10:16.552Z,102216.56
2023-02-07T02:10:52.898Z,102208.63
2023-02-07T02:11:29.070Z,102222.25
2023-02-07T02:12:05.186Z,102219.53
2023-02-07T02:12:41.634Z,102218.94
2023-02-07T02:13:17.683Z,102214.06
2023-02-07T02:13:53.228Z,102212.19
2023-02-07T02:14:29.908Z,102214.91
2023-02-07T02:15:07.111Z,102210.97
2023-02-07T02:15:43.696Z,102220.97
2023-02-07T02:16:20.001Z,102216.38
2023-02-07T02:16:56.473Z,102224.75
2023-02-07T02:17:32.991Z,102227.28
2023-02-07T02:18:09.365Z,102218.47
2023-02-07T02:18:45.760Z,102222.84
2023-02-07T02:19:21.575Z,102223.31
2023-02-07T02:19:57.560Z,102224.75
2023-02-07T02:20:34.599Z,102230.44
2023-02-07T02:21:10.810Z,102226.66
2023-02-07T02:21:47.334Z,102224.97
2023-02-07T02:22:24.036Z,102227.72
2023-02-07T02:23:00.373Z,102220.38
2023-02-07T02:23:36.721Z,102222.03
2023-02-07T02:24:13.113Z,102226.88
2023-02-07T02:24:48.246Z,102226.03
2023-02-07T02:25:24.916Z,102223.09
2023-02-07T02:26:01.000Z,102228.31
2023-02-07T02:26:37.142Z,102227.47
2023-02-07T02:27:13.731Z,102227.47
2023-02-07T02:27:50.234Z,102231.25
2023-02-07T02:28:26.606Z,102225.81
2023-02-07T02:29:02.964Z,102229.38
2023-02-07T02:29:39.088Z,102224.75
2023-02-07T02:30:15.051Z,102221.81
2023-02-07T02:30:51.600Z,102229.13
2023-02-07T02:31:27.982Z,102226.41
2023-02-07T02:32:04.212Z,102222.44
2023-02-07T02:32:40.433Z,102224.75
2023-02-07T02:33:16.626Z,102223.09
2023-02-07T02:33:53.105Z,102231.25
2023-02-07T02:34:29.308Z,102228.53
2023-02-07T02:35:05.911Z,102222.03
2023-02-07T02:35:41.725Z,102225.22
2023-02-07T02:36:18.478Z,102227.47
2023-02-07T02:36:54.890Z,102226.66
2023-02-07T02:37:31.421Z,102229.59
2023-02-07T02:38:07.622Z,102227.72
2023-02-07T02:38:43.610Z,102239.44
2023-02-07T02:39:20.547Z,102227.72
2023-02-07T02:39:57.338Z,102230.66
2023-02-07T02:40:33.382Z,102232.31
2023-02-07T02:41:09.313Z,102232.56
2023-02-07T02:41:45.260Z,102228.78
2023-02-07T02:42:21.349Z,102241.78
2023-02-07T02:42:58.280Z,102236.72
2023-02-07T02:43:34.303Z,102233.16
2023-02-07T02:44:10.778Z,102241.34
2023-02-07T02:44:47.108Z,102234.81
2023-02-07T02:45:23.632Z,102233.16
2023-02-07T02:45:59.113Z,102235.28
2023-02-07T02:46:35.045Z,102238.63
2023-02-07T02:47:11.291Z,102232.31
2023-02-07T02:47:47.628Z,102232.94
2023-02-07T02:48:23.664Z,102236.06
2023-02-07T02:48:59.700Z,102228.31
2023-02-07T02:49:36.189Z,102233.16
2023-02-07T02:50:12.928Z,102229.59
2023-02-07T02:50:49.617Z,102232.56
2023-02-07T02:51:25.939Z,102227.94
2023-02-07T02:52:01.650Z,102223.91
2023-02-07T02:52:50.264Z,102226.88
2023-02-07T02:53:26.315Z,102229.59
2023-02-07T02:54:02.040Z,102232.94
2023-02-07T02:54:38.306Z,102228.16
2023-02-07T02:55:15.126Z,102223.31
2023-02-07T02:55:51.849Z,102221.19
2023-02-07T02:56:28.527Z,102227.47
2023-02-07T02:57:05.196Z,102223.31
2023-02-07T02:57:40.767Z,102222.72
2023-02-07T02:58:16.182Z,102224.97
2023-02-07T02:58:52.532Z,102232.09
2023-02-07T02:59:28.989Z,102229.38
2023-02-07T03:00:06.149Z,102227.47
2023-02-07T03:00:42.419Z,102231.50
2023-02-07T03:01:18.655Z,102231.50
2023-02-07T03:01:55.119Z,102226.66
2023-02-07T03:02:31.790Z,102229.84
2023-02-07T03:03:07.906Z,102234.81
2023-02-07T03:03:43.638Z,102234.00
2023-02-07T03:04:20.018Z,102232.09
2023-02-07T03:04:56.527Z,102229.59
2023-02-07T03:05:33.272Z,102235.28
2023-02-07T03:06:09.579Z,102229.59
2023-02-07T03:06:45.924Z,102231.50
2023-02-07T03:07:22.335Z,102234.22
2023-02-07T03:07:59.153Z,102236.34
2023-02-07T03:08:34.643Z,102231.97
2023-02-07T03:09:10.459Z,102229.00
2023-02-07T03:09:46.629Z,102235.28
2023-02-07T03:10:22.738Z,102237.53
2023-02-07T03:10:59.879Z,102238.38
2023-02-07T03:11:36.413Z,102227.09
2023-02-07T03:12:13.218Z,102238.00
2023-02-07T03:12:48.972Z,102242.88
2023-02-07T03:13:24.923Z,102234.69
2023-02-07T03:14:01.054Z,102237.19
2023-02-07T03:14:37.544Z,102241.78
2023-02-07T03:15:14.049Z,102229.22
2023-02-07T03:15:50.923Z,102238.00
2023-02-07T03:16:27.442Z,102241.19
2023-02-07T03:17:03.686Z,102233.84
2023-02-07T03:17:39.935Z,102244.28
2023-02-07T03:18:16.120Z,102240.75
2023-02-07T03:18:51.593Z,102232.56
2023-02-07T03:19:28.433Z,102240.13
2023-02-07T03:20:04.151Z,102243.91
2023-02-07T03:20:40.716Z,102246.41
2023-02-07T03:21:17.820Z,102242.88
2023-02-07T03:21:54.124Z,102249.38
2023-02-07T03:22:30.207Z,102241.78
2023-02-07T03:23:06.434Z,102240.13
2023-02-07T03:23:42.134Z,102249.16
2023-02-07T03:24:18.836Z,102245.34
2023-02-07T03:24:55.717Z,102242.88
2023-02-07T03:25:32.019Z,102240.59
2023-02-07T03:26:08.120Z,102238.47
2023-02-07T03:26:44.107Z,102243.31
2023-02-07T03:27:20.441Z,102242.03
2023-02-07T03:27:56.605Z,102240.13
2023-02-07T03:28:32.667Z,102245.81
2023-02-07T03:29:08.352Z,102242.63
2023-02-07T03:29:44.567Z,102242.88
2023-02-07T03:30:20.469Z,102246.41
2023-02-07T03:30:56.799Z,102240.75
2023-02-07T03:31:33.235Z,102240.50
2023-02-07T03:32:09.917Z,102248.09
2023-02-07T03:32:46.106Z,102247.63
2023-02-07T03:33:22.264Z,102248.09
2023-02-07T03:33:58.194Z,102241.34
2023-02-07T03:34:34.031Z,102243.47
2023-02-07T03:35:10.192Z,102246.78
2023-02-07T03:35:46.418Z,102237.78
2023-02-07T03:36:22.347Z,102236.34
2023-02-07T03:36:58.886Z,102237.19
2023-02-07T03:37:35.036Z,102227.56
2023-02-07T03:38:11.223Z,102246.78
2023-02-07T03:38:46.951Z,102231.72
2023-02-07T03:39:23.136Z,102238.00
2023-02-07T03:39:58.856Z,102235.28
2023-02-07T03:40:35.866Z,102232.56
2023-02-07T03:41:11.914Z,102240.50
2023-02-07T03:41:47.741Z,102232.94
2023-02-07T03:42:23.872Z,102236.34
2023-02-07T03:43:00.795Z,102247.84
2023-02-07T03:43:37.222Z,102236.72
2023-02-07T03:44:13.572Z,102246.78
2023-02-07T03:44:49.479Z,102242.41
2023-02-07T03:45:25.201Z,102248.69
2023-02-07T03:46:01.157Z,102243.47
2023-02-07T03:46:37.893Z,102247.25
2023-02-07T03:47:14.149Z,102239.91
2023-02-07T03:47:50.588Z,102245.13
2023-02-07T03:48:26.748Z,102239.91
2023-02-07T03:49:03.599Z,102249.75
2023-02-07T03:49:40.709Z,102245.59
2023-02-07T03:50:16.821Z,102242.88
2023-02-07T03:50:52.909Z,102240.50
2023-02-07T03:51:29.583Z,102246.78
2023-02-07T03:52:05.622Z,102241.56
2023-02-07T03:52:41.224Z,102252.25
2023-02-07T03:53:17.051Z,102245.59
2023-02-07T03:53:53.239Z,102244.75
2023-02-07T03:54:29.552Z,102239.66
2023-02-07T03:55:05.352Z,102249.75
2023-02-07T03:55:41.824Z,102252.25
2023-02-07T03:56:18.560Z,102250.56
2023-02-07T03:56:55.024Z,102243.69
2023-02-07T03:57:31.373Z,102252.25
2023-02-07T03:58:07.761Z,102239.66
2023-02-07T03:58:43.700Z,102242.16
2023-02-07T03:59:19.657Z,102236.94
2023-02-07T03:59:55.552Z,102247.03
2023-02-07T04:00:32.154Z,102244.06
2023-02-07T04:01:08.616Z,102238.84
2023-02-07T04:01:44.690Z,102244.28
2023-02-07T04:02:21.311Z,102248.09
2023-02-07T04:02:57.676Z,102244.28
2023-02-07T04:03:33.653Z,102250.56
2023-02-07T04:04:09.554Z,102245.97
2023-02-07T04:04:46.086Z,102239.91
2023-02-07T04:05:22.006Z,102235.50
2023-02-07T04:05:58.769Z,102237.19
2023-02-07T04:06:34.616Z,102239.66
2023-02-07T04:07:11.328Z,102239.66
2023-02-07T04:07:47.611Z,102247.03
2023-02-07T04:08:24.178Z,102238.00
2023-02-07T04:09:00.220Z,102249.75
2023-02-07T04:09:35.976Z,102254.38
2023-02-07T04:10:11.656Z,102245.97
2023-02-07T04:10:48.036Z,102255.81
2023-02-07T04:11:24.295Z,102249.75
2023-02-07T04:12:00.624Z,102245.97
2023-02-07T04:12:37.017Z,102248.09
2023-02-07T04:13:13.687Z,102249.50
2023-02-07T04:13:50.041Z,102240.75
2023-02-07T04:14:26.391Z,102245.13
2023-02-07T04:15:03.582Z,102238.63
2023-02-07T04:15:40.189Z,102235.06
2023-02-07T04:16:16.731Z,102235.22
2023-02-07T04:16:53.200Z,102228.31
2023-02-07T04:17:31.174Z,102230.00
2023-02-07T04:18:06.990Z,102228.53
2023-02-07T04:18:43.299Z,102227.72
2023-02-07T04:19:19.310Z,102227.09
2023-02-07T04:19:55.869Z,102223.31
2023-02-07T04:20:31.732Z,102217.03
2023-02-07T04:21:08.136Z,102227.94
2023-02-07T04:21:44.502Z,102228.53
2023-02-07T04:22:21.150Z,102229.38
2023-02-07T04:22:57.742Z,102231.72
2023-02-07T04:23:34.095Z,102229.59
2023-02-07T04:24:09.597Z,102231.25
2023-02-07T04:24:45.592Z,102230.44
2023-02-07T04:25:22.809Z,102234.44
2023-02-07T04:25:58.458Z,102237.19
2023-02-07T04:26:34.390Z,102232.56
2023-02-07T04:27:10.810Z,102233.63
2023-02-07T04:27:47.319Z,102236.34
2023-02-07T04:28:24.111Z,102234.09
2023-02-07T04:29:00.294Z,102230.06
2023-02-07T04:29:36.332Z,102234.44
2023-02-07T04:30:13.143Z,102238.63
2023-02-07T04:30:49.930Z,102241.34
2023-02-07T04:31:26.794Z,102244.91
2023-02-07T04:32:03.272Z,102238.00
2023-02-07T04:32:39.296Z,102244.06
2023-02-07T04:33:15.293Z,102248.69
2023-02-07T04:33:51.783Z,102252.69
2023-02-07T04:34:27.839Z,102249.50
2023-02-07T04:35:03.673Z,102242.16
2023-02-07T04:35:39.945Z,102240.50
2023-02-07T04:36:16.268Z,102242.63
2023-02-07T04:36:53.025Z,102237.19
2023-02-07T04:37:29.433Z,102240.75
2023-02-07T04:38:06.178Z,102237.19
2023-02-07T04:38:42.421Z,102245.97
2023-02-07T04:39:18.482Z,102252.47
2023-02-07T04:39:53.936Z,102248.31
2023-02-07T04:40:30.600Z,102249.50
2023-02-07T04:41:07.485Z,102252.00
2023-02-07T04:41:44.267Z,102244.28
2023-02-07T04:42:20.160Z,102243.47
2023-02-07T04:42:57.003Z,102247.03
2023-02-07T04:43:33.078Z,102241.78
2023-02-07T04:44:08.970Z,102239.66
2023-02-07T04:44:44.912Z,102233.63
2023-02-07T04:45:21.978Z,102238.47
2023-02-07T04:45:58.545Z,102241.19
2023-02-07T04:46:35.019Z,102236.56
2023-02-07T04:47:11.306Z,102240.75
2023-02-07T04:47:47.814Z,102244.28
2023-02-07T04:48:24.636Z,102231.72
2023-02-07T04:49:00.426Z,102248.44
2023-02-07T04:49:35.779Z,102237.53
2023-02-07T04:50:12.601Z,102239.66
2023-02-07T04:50:48.489Z,102241.09
2023-02-07T04:51:24.691Z,102236.72
2023-02-07T04:52:01.165Z,102239.06
2023-02-07T04:52:37.661Z,102238.63
2023-02-07T04:53:13.959Z,102248.91
2023-02-07T04:53:50.263Z,102250.81
2023-02-07T04:54:26.306Z,102248.09
2023-02-07T04:55:02.110Z,102248.09
2023-02-07T04:55:38.937Z,102252.69
2023-02-07T04:56:15.255Z,102247.25
2023-02-07T04:56:51.648Z,102257.91
2023-02-07T04:57:27.550Z,102254.38
2023-02-07T04:58:03.887Z,102253.31
2023-02-07T04:58:40.415Z,102257.69
2023-02-07T04:59:16.124Z,102240.75
2023-02-07T04:59:51.778Z,102248.91
2023-02-07T05:00:27.770Z,102251.03
2023-02-07T05:01:03.869Z,102238.47
2023-02-07T05:01:40.217Z,102236.34
2023-02-07T05:02:16.107Z,102238.00
2023-02-07T05:02:52.925Z,102239.91
2023-02-07T05:03:29.155Z,102233.63
2023-02-07T05:04:05.631Z,102243.69
2023-02-07T05:04:41.667Z,102244.28
2023-02-07T05:05:16.801Z,102232.78
2023-02-07T05:05:53.218Z,102250.56
2023-02-07T05:06:30.084Z,102249.97
2023-02-07T05:07:06.720Z,102248.53
2023-02-07T05:07:42.716Z,102247.25
2023-02-07T05:08:18.263Z,102243.22
2023-02-07T05:08:54.756Z,102246.78
2023-02-07T05:09:30.619Z,102248.31
2023-02-07T05:10:06.528Z,102248.09
2023-02-07T05:10:42.625Z,102243.69
2023-02-07T05:11:18.977Z,102245.13
2023-02-07T05:11:54.794Z,102240.75
2023-02-07T05:12:31.164Z,102245.59
2023-02-07T05:13:07.249Z,102249.75
2023-02-07T05:13:43.400Z,102248.09
2023-02-07T05:14:20.154Z,102251.63
2023-02-07T05:14:57.964Z,102251.63
2023-02-07T05:15:34.500Z,102251.19
2023-02-07T05:16:10.655Z,102253.91
2023-02-07T05:16:47.297Z,102249.50
2023-02-07T05:17:23.382Z,102249.50
2023-02-07T05:17:59.752Z,102244.28
2023-02-07T05:18:36.404Z,102238.25
2023-02-07T05:19:12.500Z,102248.31
2023-02-07T05:19:48.914Z,102235.06
2023-02-07T05:20:24.849Z,102236.94
2023-02-07T05:21:00.339Z,102241.09
2023-02-07T05:21:37.069Z,102238.84
2023-02-07T05:22:13.138Z,102239.06
2023-02-07T05:22:49.249Z,102239.66
2023-02-07T05:23:25.648Z,102236.34
2023-02-07T05:24:02.235Z,102237.19
2023-02-07T05:24:37.843Z,102230.91
2023-02-07T05:25:13.521Z,102235.50
2023-02-07T05:25:49.236Z,102236.34
2023-02-07T05:26:25.930Z,102238.47
2023-02-07T05:27:01.835Z,102240.97
2023-02-07T05:27:38.289Z,102244.97
2023-02-07T05:28:14.810Z,102245.59
2023-02-07T05:28:50.720Z,102235.75
2023-02-07T05:29:26.659Z,102233.84
2023-02-07T05:30:04.232Z,102230.53
2023-02-07T05:30:40.490Z,102228.03
2023-02-07T05:31:17.127Z,102243.91
2023-02-07T05:31:53.237Z,102236.34
2023-02-07T05:32:29.372Z,102230.06
2023-02-07T05:33:05.518Z,102236.56
2023-02-07T05:33:41.434Z,102235.13
2023-02-07T05:34:17.450Z,102233.25
2023-02-07T05:34:53.418Z,102238.94
2023-02-07T05:35:29.170Z,102234.91
2023-02-07T05:36:04.877Z,102233.03
2023-02-07T05:36:41.112Z,102233.84
2023-02-07T05:37:16.875Z,102236.56
2023-02-07T05:37:53.608Z,102227.09
2023-02-07T05:38:30.014Z,102237.41
2023-02-07T05:39:06.118Z,102231.34
2023-02-07T05:39:41.933Z,102231.34
2023-02-07T05:40:18.410Z,102242.25
2023-02-07T05:40:54.092Z,102239.75
2023-02-07T05:41:29.539Z,102233.47
2023-02-07T05:42:05.500Z,102232.19
2023-02-07T05:42:42.323Z,102235.13
2023-02-07T05:43:18.472Z,102224.25
2023-02-07T05:43:54.916Z,102224.25
2023-02-07T05:44:31.756Z,102225.31
2023-02-07T05:45:08.387Z,102224.47
2023-02-07T05:45:44.372Z,102238.94
2023-02-07T05:46:20.497Z,102228.84
2023-02-07T05:46:56.409Z,102225.91
2023-02-07T05:47:32.868Z,102228.63
2023-02-07T05:48:08.436Z,102228.03
2023-02-07T05:48:45.023Z,102227.34
2023-02-07T05:49:21.177Z,102231.97
2023-02-07T05:49:57.442Z,102235.75
2023-02-07T05:50:33.594Z,102237.41
2023-02-07T05:51:09.839Z,102235.97
2023-02-07T05:51:45.658Z,102235.75
2023-02-07T05:52:21.068Z,102231.97
2023-02-07T05:52:57.850Z,102238.00
2023-02-07T05:53:34.229Z,102235.75
2023-02-07T05:54:10.581Z,102234.09
2023-02-07T05:54:46.825Z,102228.63
2023-02-07T05:55:22.740Z,102232.78
2023-02-07T05:55:58.443Z,102228.41
2023-02-07T05:56:34.696Z,102225.66
2023-02-07T05:57:11.484Z,102229.91
2023-02-07T05:57:47.714Z,102226.72
2023-02-07T05:58:23.680Z,102227.56
2023-02-07T05:59:00.108Z,102229.00
2023-02-07T05:59:36.467Z,102226.50
2023-02-07T06:00:12.309Z,102236.34
2023-02-07T06:00:48.268Z,102231.97
2023-02-07T06:01:24.339Z,102233.25
2023-02-07T06:02:00.603Z,102235.13
2023-02-07T06:02:37.118Z,102227.56
2023-02-07T06:03:13.438Z,102227.78
2023-02-07T06:03:49.636Z,102233.03
2023-02-07T06:04:26.250Z,102237.25
2023-02-07T06:05:03.084Z,102231.34
2023-02-07T06:05:39.296Z,102231.13
2023-02-07T06:06:14.609Z,102236.81
2023-02-07T06:06:51.350Z,102240.13
2023-02-07T06:07:27.792Z,102236.81
2023-02-07T06:08:03.904Z,102235.75
2023-02-07T06:08:40.564Z,102233.03
2023-02-07T06:09:16.967Z,102233.03
2023-02-07T06:09:52.814Z,102235.75
2023-02-07T06:10:29.236Z,102235.13
2023-02-07T06:11:05.336Z,102234.09
2023-02-07T06:11:41.165Z,102238.94
2023-02-07T06:12:18.199Z,102240.59
2023-02-07T06:12:54.666Z,102238.69
2023-02-07T06:13:31.129Z,102237.63
2023-02-07T06:14:07.066Z,102243.31
2023-02-07T06:14:43.722Z,102239.53
2023-02-07T06:15:20.366Z,102244.38
2023-02-07T06:15:56.819Z,102242.25
2023-02-07T06:16:32.773Z,102239.75
2023-02-07T06:17:08.627Z,102244.75
2023-02-07T06:17:44.964Z,102244.97
2023-02-07T06:18:20.829Z,102243.91
2023-02-07T06:18:57.480Z,102238.25
2023-02-07T06:19:34.544Z,102241.19
2023-02-07T06:20:10.534Z,102246.41
2023-02-07T06:20:46.031Z,102249.16
2023-02-07T06:21:22.166Z,102243.69
2023-02-07T06:21:58.558Z,102249.38
2023-02-07T06:22:34.631Z,102253.53
2023-02-07T06:23:11.632Z,102256.50
2023-02-07T06:23:48.119Z,102251.03
2023-02-07T06:24:24.520Z,102255.66
2023-02-07T06:25:00.924Z,102254.59
2023-02-07T06:25:37.217Z,102255.66
2023-02-07T06:26:13.696Z,102255.66
2023-02-07T06:26:49.852Z,102252.94
2023-02-07T06:27:25.626Z,102252.09
2023-02-07T06:28:02.337Z,102260.28
2023-02-07T06:28:38.023Z,102249.84
2023-02-07T06:29:14.202Z,102258.00
2023-02-07T06:29:51.089Z,102255.66
2023-02-07T06:30:27.354Z,102260.66
2023-02-07T06:31:02.947Z,102258.38
2023-02-07T06:31:39.167Z,102267.16
2023-02-07T06:32:15.429Z,102260.88
2023-02-07T06:32:51.561Z,102260.28
2023-02-07T06:33:28.247Z,102265.97
2023-02-07T06:34:05.386Z,102265.13
2023-02-07T06:34:41.821Z,102275.81
2023-02-07T06:35:18.960Z,102266.78
2023-02-07T06:35:55.285Z,102268.09
2023-02-07T06:36:31.367Z,102275.81
2023-02-07T06:37:08.157Z,102268.09
2023-02-07T06:37:44.254Z,102270.13
2023-02-07T06:38:20.785Z,102278.28
2023-02-07T06:38:56.815Z,102278.28
2023-02-07T06:39:33.382Z,102277.47
2023-02-07T06:40:10.027Z,102277.47
2023-02-07T06:40:46.703Z,102275.34
2023-02-07T06:41:22.792Z,102274.97
2023-02-07T06:41:58.563Z,102269.28
2023-02-07T06:42:34.805Z,102274.97
2023-02-07T06:43:11.493Z,102268.22
2023-02-07T06:43:48.371Z,102270.13
2023-02-07T06:44:25.158Z,102265.13
2023-02-07T06:45:01.498Z,102264.91
2023-02-07T06:45:39.528Z,102266.78
2023-02-07T06:46:15.986Z,102265.72
2023-02-07T06:46:51.521Z,102276.88
2023-02-07T06:47:27.182Z,102268.91
2023-02-07T06:48:03.849Z,102276.03
2023-02-07T06:48:40.316Z,102277.91
2023-02-07T06:49:16.562Z,102276.88
2023-02-07T06:49:53.449Z,102272.25
2023-02-07T06:50:30.923Z,102283.16
2023-02-07T06:51:07.164Z,102276.63
2023-02-07T06:51:43.655Z,102282.09
2023-02-07T06:52:20.024Z,102283.16
2023-02-07T06:52:55.540Z,102284.81
2023-02-07T06:53:32.195Z,102285.03
2023-02-07T06:54:08.309Z,102289.44